sensor_id;sensor_type;location;lat;lon;timestamp;P1;durP1;ratioP1;P2;durP2;ratioP2
17175;SDS011;8703;48.996;9.594;2023-03-25T00:02:24;1.90;;;1.33;;
17175;SDS011;8703;48.996;9.594;2023-03-25T00:04:55;1.40;;;0.73;;
17175;SDS011;8703;48.996;9.594;2023-03-25T00:07:24;2.40;;;0.70;;
17175;SDS011;8703;48.996;9.594;2023-03-25T00:09:52;2.53;;;0.87;;
17175;SDS011;8703;48.996;9.594;2023-03-25T00:12:19;3.13;;;1.03;;
17175;SDS011;8703;48.996;9.594;2023-03-25T00:14:46;2.47;;;1.07;;
17175;SDS011;8703;48.996;9.594;2023-03-25T00:17:18;2.57;;;0.70;;
17175;SDS011;8703;48.996;9.594;2023-03-25T00:19:46;1.80;;;1.10;;
17175;SDS011;8703;48.996;9.594;2023-03-25T00:22:17;1.43;;;0.60;;
17175;SDS011;8703;48.996;9.594;2023-03-25T00:24:44;2.20;;;0.67;;
17175;SDS011;8703;48.996;9.594;2023-03-25T00:27:12;3.90;;;0.70;;
17175;SDS011;8703;48.996;9.594;2023-03-25T00:29:41;2.47;;;0.70;;
17175;SDS011;8703;48.996;9.594;2023-03-25T00:32:09;3.20;;;0.77;;
17175;SDS011;8703;48.996;9.594;2023-03-25T00:34:36;4.73;;;1.00;;
17175;SDS011;8703;48.996;9.594;2023-03-25T00:37:06;1.93;;;1.00;;
17175;SDS011;8703;48.996;9.594;2023-03-25T00:39:35;5.13;;;0.90;;
17175;SDS011;8703;48.996;9.594;2023-03-25T00:42:03;1.37;;;0.77;;
17175;SDS011;8703;48.996;9.594;2023-03-25T00:44:30;3.07;;;0.70;;
17175;SDS011;8703;48.996;9.594;2023-03-25T00:46:58;1.50;;;0.63;;
17175;SDS011;8703;48.996;9.594;2023-03-25T00:49:25;2.83;;;1.03;;
17175;SDS011;8703;48.996;9.594;2023-03-25T00:51:53;2.00;;;0.90;;
17175;SDS011;8703;48.996;9.594;2023-03-25T00:54:21;2.27;;;0.70;;
17175;SDS011;8703;48.996;9.594;2023-03-25T00:56:49;4.60;;;1.40;;
17175;SDS011;8703;48.996;9.594;2023-03-25T00:59:18;3.23;;;0.60;;
17175;SDS011;8703;48.996;9.594;2023-03-25T01:01:46;1.00;;;0.70;;
17175;SDS011;8703;48.996;9.594;2023-03-25T01:04:13;1.00;;;0.60;;
17175;SDS011;8703;48.996;9.594;2023-03-25T01:06:42;1.33;;;0.60;;
17175;SDS011;8703;48.996;9.594;2023-03-25T01:09:10;1.10;;;0.60;;
17175;SDS011;8703;48.996;9.594;2023-03-25T01:11:40;5.37;;;0.80;;
17175;SDS011;8703;48.996;9.594;2023-03-25T01:14:11;2.10;;;0.50;;
17175;SDS011;8703;48.996;9.594;2023-03-25T01:16:40;1.43;;;0.60;;
17175;SDS011;8703;48.996;9.594;2023-03-25T01:19:08;1.70;;;0.83;;
17175;SDS011;8703;48.996;9.594;2023-03-25T01:21:35;1.43;;;0.50;;
17175;SDS011;8703;48.996;9.594;2023-03-25T01:24:03;2.50;;;0.60;;
17175;SDS011;8703;48.996;9.594;2023-03-25T01:26:31;1.30;;;0.60;;
17175;SDS011;8703;48.996;9.594;2023-03-25T01:28:59;1.40;;;0.60;;
17175;SDS011;8703;48.996;9.594;2023-03-25T01:31:27;4.73;;;1.00;;
17175;SDS011;8703;48.996;9.594;2023-03-25T01:33:55;2.00;;;0.60;;
17175;SDS011;8703;48.996;9.594;2023-03-25T01:36:22;1.30;;;0.60;;
17175;SDS011;8703;48.996;9.594;2023-03-25T01:38:53;1.90;;;0.50;;
17175;SDS011;8703;48.996;9.594;2023-03-25T01:41:22;1.67;;;0.57;;
17175;SDS011;8703;48.996;9.594;2023-03-25T01:43:59;2.47;;;0.50;;
17175;SDS011;8703;48.996;9.594;2023-03-25T01:46:32;2.30;;;0.53;;
17175;SDS011;8703;48.996;9.594;2023-03-25T01:48:59;1.63;;;0.60;;
17175;SDS011;8703;48.996;9.594;2023-03-25T01:51:29;1.03;;;0.57;;
17175;SDS011;8703;48.996;9.594;2023-03-25T01:53:59;3.17;;;0.63;;
17175;SDS011;8703;48.996;9.594;2023-03-25T01:56:27;1.03;;;0.50;;
17175;SDS011;8703;48.996;9.594;2023-03-25T01:58:57;2.50;;;0.60;;
17175;SDS011;8703;48.996;9.594;2023-03-25T02:01:28;1.33;;;0.50;;
17175;SDS011;8703;48.996;9.594;2023-03-25T02:03:57;2.30;;;0.60;;
17175;SDS011;8703;48.996;9.594;2023-03-25T02:06:35;2.13;;;0.57;;
17175;SDS011;8703;48.996;9.594;2023-03-25T02:09:06;2.87;;;0.57;;
17175;SDS011;8703;48.996;9.594;2023-03-25T02:11:36;1.53;;;0.50;;
17175;SDS011;8703;48.996;9.594;2023-03-25T02:14:04;3.37;;;0.67;;
17175;SDS011;8703;48.996;9.594;2023-03-25T02:16:34;3.43;;;0.90;;
17175;SDS011;8703;48.996;9.594;2023-03-25T02:19:15;1.70;;;0.60;;
17175;SDS011;8703;48.996;9.594;2023-03-25T02:22:14;3.30;;;0.90;;
17175;SDS011;8703;48.996;9.594;2023-03-25T02:25:04;3.30;;;0.80;;
17175;SDS011;8703;48.996;9.594;2023-03-25T02:27:54;1.90;;;0.70;;
17175;SDS011;8703;48.996;9.594;2023-03-25T02:30:34;2.97;;;0.77;;
17175;SDS011;8703;48.996;9.594;2023-03-25T02:33:14;1.97;;;0.63;;
17175;SDS011;8703;48.996;9.594;2023-03-25T02:36:09;2.47;;;0.63;;
17175;SDS011;8703;48.996;9.594;2023-03-25T02:38:47;2.17;;;0.87;;
17175;SDS011;8703;48.996;9.594;2023-03-25T02:41:17;3.67;;;0.80;;
17175;SDS011;8703;48.996;9.594;2023-03-25T02:43:48;1.90;;;0.70;;
17175;SDS011;8703;48.996;9.594;2023-03-25T02:46:18;2.83;;;0.70;;
17175;SDS011;8703;48.996;9.594;2023-03-25T02:48:49;2.23;;;0.60;;
17175;SDS011;8703;48.996;9.594;2023-03-25T02:51:19;3.00;;;0.80;;
17175;SDS011;8703;48.996;9.594;2023-03-25T02:53:51;2.53;;;0.70;;
17175;SDS011;8703;48.996;9.594;2023-03-25T02:56:19;3.70;;;0.80;;
17175;SDS011;8703;48.996;9.594;2023-03-25T02:58:49;0.20;;;0.20;;
17175;SDS011;8703;48.996;9.594;2023-03-25T03:01:19;0.20;;;0.20;;
17175;SDS011;8703;48.996;9.594;2023-03-25T03:03:50;0.20;;;0.20;;
17175;SDS011;8703;48.996;9.594;2023-03-25T03:06:18;0.20;;;0.20;;
17175;SDS011;8703;48.996;9.594;2023-03-25T03:08:50;0.30;;;0.30;;
17175;SDS011;8703;48.996;9.594;2023-03-25T03:11:24;0.20;;;0.20;;
17175;SDS011;8703;48.996;9.594;2023-03-25T03:13:58;0.20;;;0.20;;
17175;SDS011;8703;48.996;9.594;2023-03-25T03:16:32;0.20;;;0.20;;
17175;SDS011;8703;48.996;9.594;2023-03-25T03:19:09;0.20;;;0.20;;
17175;SDS011;8703;48.996;9.594;2023-03-25T03:21:49;0.20;;;0.20;;
17175;SDS011;8703;48.996;9.594;2023-03-25T03:24:26;0.10;;;0.10;;
17175;SDS011;8703;48.996;9.594;2023-03-25T03:26:57;0.20;;;0.20;;
17175;SDS011;8703;48.996;9.594;2023-03-25T03:29:29;0.20;;;0.20;;
17175;SDS011;8703;48.996;9.594;2023-03-25T03:32:00;0.30;;;0.30;;
17175;SDS011;8703;48.996;9.594;2023-03-25T03:34:32;0.30;;;0.30;;
17175;SDS011;8703;48.996;9.594;2023-03-25T03:37:05;0.20;;;0.20;;
17175;SDS011;8703;48.996;9.594;2023-03-25T03:39:35;0.20;;;0.20;;
17175;SDS011;8703;48.996;9.594;2023-03-25T03:42:05;0.20;;;0.20;;
17175;SDS011;8703;48.996;9.594;2023-03-25T03:44:35;0.30;;;0.30;;
17175;SDS011;8703;48.996;9.594;2023-03-25T03:47:04;0.20;;;0.20;;
17175;SDS011;8703;48.996;9.594;2023-03-25T03:49:35;0.20;;;0.20;;
17175;SDS011;8703;48.996;9.594;2023-03-25T03:52:05;0.20;;;0.20;;
17175;SDS011;8703;48.996;9.594;2023-03-25T03:54:36;0.20;;;0.20;;
17175;SDS011;8703;48.996;9.594;2023-03-25T03:57:06;0.20;;;0.20;;
17175;SDS011;8703;48.996;9.594;2023-03-25T03:59:38;0.20;;;0.20;;
17175;SDS011;8703;48.996;9.594;2023-03-25T04:02:13;0.20;;;0.20;;
17175;SDS011;8703;48.996;9.594;2023-03-25T04:04:48;0.10;;;0.10;;
17175;SDS011;8703;48.996;9.594;2023-03-25T04:07:16;0.23;;;0.23;;
17175;SDS011;8703;48.996;9.594;2023-03-25T04:09:49;0.20;;;0.20;;
17175;SDS011;8703;48.996;9.594;2023-03-25T04:12:21;0.20;;;0.20;;
17175;SDS011;8703;48.996;9.594;2023-03-25T04:14:50;0.20;;;0.20;;
17175;SDS011;8703;48.996;9.594;2023-03-25T04:17:19;0.20;;;0.20;;
17175;SDS011;8703;48.996;9.594;2023-03-25T04:19:47;0.30;;;0.30;;
17175;SDS011;8703;48.996;9.594;2023-03-25T04:22:17;0.20;;;0.20;;
17175;SDS011;8703;48.996;9.594;2023-03-25T04:24:47;0.30;;;0.30;;
17175;SDS011;8703;48.996;9.594;2023-03-25T04:27:16;0.20;;;0.20;;
17175;SDS011;8703;48.996;9.594;2023-03-25T04:29:47;0.30;;;0.30;;
17175;SDS011;8703;48.996;9.594;2023-03-25T04:32:15;0.20;;;0.20;;
17175;SDS011;8703;48.996;9.594;2023-03-25T04:34:43;0.20;;;0.20;;
17175;SDS011;8703;48.996;9.594;2023-03-25T04:37:12;0.30;;;0.30;;
17175;SDS011;8703;48.996;9.594;2023-03-25T04:39:39;0.13;;;0.13;;
17175;SDS011;8703;48.996;9.594;2023-03-25T04:42:08;0.20;;;0.20;;
17175;SDS011;8703;48.996;9.594;2023-03-25T04:44:37;0.20;;;0.20;;
17175;SDS011;8703;48.996;9.594;2023-03-25T04:47:06;0.20;;;0.20;;
17175;SDS011;8703;48.996;9.594;2023-03-25T04:49:35;0.20;;;0.20;;
17175;SDS011;8703;48.996;9.594;2023-03-25T04:52:03;0.20;;;0.20;;
17175;SDS011;8703;48.996;9.594;2023-03-25T04:54:33;0.23;;;0.23;;
17175;SDS011;8703;48.996;9.594;2023-03-25T04:57:02;0.20;;;0.20;;
17175;SDS011;8703;48.996;9.594;2023-03-25T04:59:33;0.30;;;0.30;;
17175;SDS011;8703;48.996;9.594;2023-03-25T05:02:01;0.20;;;0.20;;
17175;SDS011;8703;48.996;9.594;2023-03-25T05:04:29;0.20;;;0.20;;
17175;SDS011;8703;48.996;9.594;2023-03-25T05:06:57;0.30;;;0.30;;
17175;SDS011;8703;48.996;9.594;2023-03-25T05:09:25;0.20;;;0.20;;
17175;SDS011;8703;48.996;9.594;2023-03-25T05:11:53;0.20;;;0.20;;
17175;SDS011;8703;48.996;9.594;2023-03-25T05:14:21;0.20;;;0.20;;
17175;SDS011;8703;48.996;9.594;2023-03-25T05:16:49;0.20;;;0.20;;
17175;SDS011;8703;48.996;9.594;2023-03-25T05:19:17;0.20;;;0.20;;
17175;SDS011;8703;48.996;9.594;2023-03-25T05:21:45;0.20;;;0.20;;
17175;SDS011;8703;48.996;9.594;2023-03-25T05:24:12;0.20;;;0.20;;
17175;SDS011;8703;48.996;9.594;2023-03-25T05:26:41;0.20;;;0.20;;
17175;SDS011;8703;48.996;9.594;2023-03-25T05:29:09;0.20;;;0.20;;
17175;SDS011;8703;48.996;9.594;2023-03-25T05:31:38;0.20;;;0.20;;
17175;SDS011;8703;48.996;9.594;2023-03-25T05:34:07;0.20;;;0.20;;
17175;SDS011;8703;48.996;9.594;2023-03-25T05:36:34;0.30;;;0.30;;
17175;SDS011;8703;48.996;9.594;2023-03-25T05:39:02;0.20;;;0.20;;
17175;SDS011;8703;48.996;9.594;2023-03-25T05:41:30;0.20;;;0.20;;
17175;SDS011;8703;48.996;9.594;2023-03-25T05:44:02;0.10;;;0.10;;
17175;SDS011;8703;48.996;9.594;2023-03-25T05:46:30;0.20;;;0.20;;
17175;SDS011;8703;48.996;9.594;2023-03-25T05:48:58;0.27;;;0.27;;
17175;SDS011;8703;48.996;9.594;2023-03-25T05:51:27;0.20;;;0.20;;
17175;SDS011;8703;48.996;9.594;2023-03-25T05:53:57;0.20;;;0.20;;
17175;SDS011;8703;48.996;9.594;2023-03-25T05:56:25;0.20;;;0.20;;
17175;SDS011;8703;48.996;9.594;2023-03-25T05:58:52;0.20;;;0.20;;
17175;SDS011;8703;48.996;9.594;2023-03-25T06:01:20;0.20;;;0.20;;
17175;SDS011;8703;48.996;9.594;2023-03-25T06:03:47;0.30;;;0.30;;
17175;SDS011;8703;48.996;9.594;2023-03-25T06:06:15;0.20;;;0.20;;
17175;SDS011;8703;48.996;9.594;2023-03-25T06:08:45;0.20;;;0.20;;
17175;SDS011;8703;48.996;9.594;2023-03-25T06:11:14;0.13;;;0.13;;
17175;SDS011;8703;48.996;9.594;2023-03-25T06:13:42;0.20;;;0.20;;
17175;SDS011;8703;48.996;9.594;2023-03-25T06:16:13;0.20;;;0.20;;
17175;SDS011;8703;48.996;9.594;2023-03-25T06:18:42;0.20;;;0.20;;
17175;SDS011;8703;48.996;9.594;2023-03-25T06:21:15;0.27;;;0.27;;
17175;SDS011;8703;48.996;9.594;2023-03-25T06:23:45;0.10;;;0.10;;
17175;SDS011;8703;48.996;9.594;2023-03-25T06:26:13;0.20;;;0.20;;
17175;SDS011;8703;48.996;9.594;2023-03-25T06:28:41;0.20;;;0.20;;
17175;SDS011;8703;48.996;9.594;2023-03-25T06:31:12;0.20;;;0.20;;
17175;SDS011;8703;48.996;9.594;2023-03-25T06:33:40;0.20;;;0.20;;
17175;SDS011;8703;48.996;9.594;2023-03-25T06:36:09;0.20;;;0.20;;
17175;SDS011;8703;48.996;9.594;2023-03-25T06:38:37;0.20;;;0.20;;
17175;SDS011;8703;48.996;9.594;2023-03-25T06:41:06;0.20;;;0.20;;
17175;SDS011;8703;48.996;9.594;2023-03-25T06:43:33;0.20;;;0.20;;
17175;SDS011;8703;48.996;9.594;2023-03-25T06:46:01;0.20;;;0.20;;
17175;SDS011;8703;48.996;9.594;2023-03-25T06:48:28;0.23;;;0.23;;
17175;SDS011;8703;48.996;9.594;2023-03-25T06:50:56;0.20;;;0.20;;
17175;SDS011;8703;48.996;9.594;2023-03-25T06:53:23;0.20;;;0.20;;
17175;SDS011;8703;48.996;9.594;2023-03-25T06:55:50;0.20;;;0.20;;
17175;SDS011;8703;48.996;9.594;2023-03-25T06:58:19;0.10;;;0.10;;
17175;SDS011;8703;48.996;9.594;2023-03-25T07:00:51;0.20;;;0.20;;
17175;SDS011;8703;48.996;9.594;2023-03-25T07:03:19;0.20;;;0.20;;
17175;SDS011;8703;48.996;9.594;2023-03-25T07:05:46;0.20;;;0.20;;
17175;SDS011;8703;48.996;9.594;2023-03-25T07:08:14;0.20;;;0.20;;
17175;SDS011;8703;48.996;9.594;2023-03-25T07:10:41;0.20;;;0.20;;
17175;SDS011;8703;48.996;9.594;2023-03-25T07:13:08;0.10;;;0.10;;
17175;SDS011;8703;48.996;9.594;2023-03-25T07:15:37;0.30;;;0.30;;
17175;SDS011;8703;48.996;9.594;2023-03-25T07:18:04;0.20;;;0.20;;
17175;SDS011;8703;48.996;9.594;2023-03-25T07:20:32;0.97;;;0.97;;
17175;SDS011;8703;48.996;9.594;2023-03-25T07:22:59;0.30;;;0.30;;
17175;SDS011;8703;48.996;9.594;2023-03-25T07:25:27;0.20;;;0.20;;
17175;SDS011;8703;48.996;9.594;2023-03-25T07:27:54;0.20;;;0.20;;
17175;SDS011;8703;48.996;9.594;2023-03-25T07:30:21;0.10;;;0.10;;
17175;SDS011;8703;48.996;9.594;2023-03-25T07:32:50;0.30;;;0.30;;
17175;SDS011;8703;48.996;9.594;2023-03-25T07:35:17;0.30;;;0.30;;
17175;SDS011;8703;48.996;9.594;2023-03-25T07:37:45;0.17;;;0.17;;
17175;SDS011;8703;48.996;9.594;2023-03-25T07:40:13;0.10;;;0.10;;
17175;SDS011;8703;48.996;9.594;2023-03-25T07:42:40;0.20;;;0.20;;
17175;SDS011;8703;48.996;9.594;2023-03-25T07:45:07;0.20;;;0.20;;
17175;SDS011;8703;48.996;9.594;2023-03-25T07:47:35;0.20;;;0.20;;
17175;SDS011;8703;48.996;9.594;2023-03-25T07:50:05;0.20;;;0.20;;
17175;SDS011;8703;48.996;9.594;2023-03-25T07:52:33;0.20;;;0.20;;
17175;SDS011;8703;48.996;9.594;2023-03-25T07:55:00;0.10;;;0.10;;
17175;SDS011;8703;48.996;9.594;2023-03-25T07:57:28;0.27;;;0.27;;
17175;SDS011;8703;48.996;9.594;2023-03-25T07:59:55;0.17;;;0.17;;
17175;SDS011;8703;48.996;9.594;2023-03-25T08:02:22;0.20;;;0.20;;
17175;SDS011;8703;48.996;9.594;2023-03-25T08:04:50;0.20;;;0.20;;
17175;SDS011;8703;48.996;9.594;2023-03-25T08:07:19;0.20;;;0.20;;
17175;SDS011;8703;48.996;9.594;2023-03-25T08:09:47;0.13;;;0.13;;
17175;SDS011;8703;48.996;9.594;2023-03-25T08:12:14;0.30;;;0.30;;
17175;SDS011;8703;48.996;9.594;2023-03-25T08:14:41;0.10;;;0.10;;
17175;SDS011;8703;48.996;9.594;2023-03-25T08:17:09;0.10;;;0.10;;
17175;SDS011;8703;48.996;9.594;2023-03-25T08:19:36;0.10;;;0.10;;
17175;SDS011;8703;48.996;9.594;2023-03-25T08:22:03;0.20;;;0.20;;
17175;SDS011;8703;48.996;9.594;2023-03-25T08:24:32;0.20;;;0.20;;
17175;SDS011;8703;48.996;9.594;2023-03-25T08:26:59;0.20;;;0.20;;
17175;SDS011;8703;48.996;9.594;2023-03-25T08:29:27;0.20;;;0.20;;
17175;SDS011;8703;48.996;9.594;2023-03-25T08:31:58;0.10;;;0.10;;
17175;SDS011;8703;48.996;9.594;2023-03-25T08:34:25;0.10;;;0.10;;
17175;SDS011;8703;48.996;9.594;2023-03-25T08:36:53;0.20;;;0.20;;
17175;SDS011;8703;48.996;9.594;2023-03-25T08:39:20;0.10;;;0.10;;
17175;SDS011;8703;48.996;9.594;2023-03-25T08:41:55;0.10;;;0.10;;
17175;SDS011;8703;48.996;9.594;2023-03-25T08:44:23;0.10;;;0.10;;
17175;SDS011;8703;48.996;9.594;2023-03-25T08:46:51;0.10;;;0.10;;
17175;SDS011;8703;48.996;9.594;2023-03-25T08:49:18;0.17;;;0.17;;
17175;SDS011;8703;48.996;9.594;2023-03-25T08:51:45;0.10;;;0.10;;
17175;SDS011;8703;48.996;9.594;2023-03-25T08:54:13;0.20;;;0.20;;
17175;SDS011;8703;48.996;9.594;2023-03-25T08:56:41;0.20;;;0.20;;
17175;SDS011;8703;48.996;9.594;2023-03-25T08:59:09;0.20;;;0.20;;
17175;SDS011;8703;48.996;9.594;2023-03-25T09:01:37;0.30;;;0.30;;
17175;SDS011;8703;48.996;9.594;2023-03-25T09:04:06;0.10;;;0.10;;
17175;SDS011;8703;48.996;9.594;2023-03-25T09:06:33;0.20;;;0.20;;
17175;SDS011;8703;48.996;9.594;2023-03-25T09:09:01;0.20;;;0.20;;
17175;SDS011;8703;48.996;9.594;2023-03-25T09:11:29;0.10;;;0.10;;
17175;SDS011;8703;48.996;9.594;2023-03-25T09:13:56;0.10;;;0.10;;
17175;SDS011;8703;48.996;9.594;2023-03-25T09:16:27;0.20;;;0.20;;
17175;SDS011;8703;48.996;9.594;2023-03-25T09:18:55;0.10;;;0.10;;
17175;SDS011;8703;48.996;9.594;2023-03-25T09:21:22;0.23;;;0.23;;
17175;SDS011;8703;48.996;9.594;2023-03-25T09:23:50;0.10;;;0.10;;
17175;SDS011;8703;48.996;9.594;2023-03-25T09:26:17;0.20;;;0.20;;
17175;SDS011;8703;48.996;9.594;2023-03-25T09:28:44;0.13;;;0.13;;
17175;SDS011;8703;48.996;9.594;2023-03-25T09:31:12;0.10;;;0.10;;
17175;SDS011;8703;48.996;9.594;2023-03-25T09:33:41;0.10;;;0.10;;
17175;SDS011;8703;48.996;9.594;2023-03-25T09:36:09;0.10;;;0.10;;
17175;SDS011;8703;48.996;9.594;2023-03-25T09:38:37;0.20;;;0.20;;
17175;SDS011;8703;48.996;9.594;2023-03-25T09:43:59;0.10;;;0.10;;
17175;SDS011;8703;48.996;9.594;2023-03-25T09:46:32;0.17;;;0.17;;
17175;SDS011;8703;48.996;9.594;2023-03-25T09:49:01;0.20;;;0.20;;
17175;SDS011;8703;48.996;9.594;2023-03-25T09:51:29;0.10;;;0.10;;
17175;SDS011;8703;48.996;9.594;2023-03-25T09:53:59;0.30;;;0.30;;
17175;SDS011;8703;48.996;9.594;2023-03-25T09:56:30;0.10;;;0.10;;
17175;SDS011;8703;48.996;9.594;2023-03-25T09:59:00;0.10;;;0.10;;
17175;SDS011;8703;48.996;9.594;2023-03-25T10:01:33;0.10;;;0.10;;
17175;SDS011;8703;48.996;9.594;2023-03-25T10:04:13;0.10;;;0.10;;
17175;SDS011;8703;48.996;9.594;2023-03-25T10:06:56;1.13;;;0.40;;
17175;SDS011;8703;48.996;9.594;2023-03-25T10:09:33;0.93;;;0.50;;
17175;SDS011;8703;48.996;9.594;2023-03-25T10:12:11;0.53;;;0.47;;
17175;SDS011;8703;48.996;9.594;2023-03-25T10:14:51;0.90;;;0.40;;
17175;SDS011;8703;48.996;9.594;2023-03-25T10:17:25;0.50;;;0.40;;
17175;SDS011;8703;48.996;9.594;2023-03-25T10:20:00;0.80;;;0.60;;
17175;SDS011;8703;48.996;9.594;2023-03-25T10:22:33;1.37;;;0.47;;
17175;SDS011;8703;48.996;9.594;2023-03-25T10:25:05;0.30;;;0.30;;
17175;SDS011;8703;48.996;9.594;2023-03-25T10:27:38;1.87;;;0.50;;
17175;SDS011;8703;48.996;9.594;2023-03-25T10:30:09;2.43;;;0.83;;
17175;SDS011;8703;48.996;9.594;2023-03-25T10:32:39;0.20;;;0.20;;
17175;SDS011;8703;48.996;9.594;2023-03-25T10:35:11;0.20;;;0.20;;
17175;SDS011;8703;48.996;9.594;2023-03-25T10:37:40;0.20;;;0.20;;
17175;SDS011;8703;48.996;9.594;2023-03-25T10:40:12;0.20;;;0.20;;
17175;SDS011;8703;48.996;9.594;2023-03-25T10:42:43;1.20;;;1.17;;
17175;SDS011;8703;48.996;9.594;2023-03-25T10:45:19;0.20;;;0.20;;
17175;SDS011;8703;48.996;9.594;2023-03-25T10:47:47;0.20;;;0.20;;
17175;SDS011;8703;48.996;9.594;2023-03-25T10:50:17;0.20;;;0.20;;
17175;SDS011;8703;48.996;9.594;2023-03-25T10:52:46;0.20;;;0.20;;
17175;SDS011;8703;48.996;9.594;2023-03-25T10:55:18;0.20;;;0.20;;
17175;SDS011;8703;48.996;9.594;2023-03-25T10:57:48;0.20;;;0.20;;
17175;SDS011;8703;48.996;9.594;2023-03-25T11:00:17;0.13;;;0.13;;
17175;SDS011;8703;48.996;9.594;2023-03-25T11:02:48;0.10;;;0.10;;
17175;SDS011;8703;48.996;9.594;2023-03-25T11:05:18;0.17;;;0.17;;
17175;SDS011;8703;48.996;9.594;2023-03-25T11:07:48;0.20;;;0.20;;
17175;SDS011;8703;48.996;9.594;2023-03-25T11:10:19;0.20;;;0.20;;
17175;SDS011;8703;48.996;9.594;2023-03-25T11:12:48;0.20;;;0.20;;
17175;SDS011;8703;48.996;9.594;2023-03-25T11:15:18;0.20;;;0.20;;
17175;SDS011;8703;48.996;9.594;2023-03-25T11:17:53;0.20;;;0.20;;
17175;SDS011;8703;48.996;9.594;2023-03-25T11:20:26;0.20;;;0.20;;
17175;SDS011;8703;48.996;9.594;2023-03-25T11:22:59;0.20;;;0.20;;
17175;SDS011;8703;48.996;9.594;2023-03-25T11:25:31;0.27;;;0.27;;
17175;SDS011;8703;48.996;9.594;2023-03-25T11:28:04;0.13;;;0.13;;
17175;SDS011;8703;48.996;9.594;2023-03-25T11:30:36;0.20;;;0.20;;
17175;SDS011;8703;48.996;9.594;2023-03-25T11:33:04;0.10;;;0.10;;
17175;SDS011;8703;48.996;9.594;2023-03-25T11:35:40;0.10;;;0.10;;
17175;SDS011;8703;48.996;9.594;2023-03-25T11:38:12;0.20;;;0.20;;
17175;SDS011;8703;48.996;9.594;2023-03-25T11:40:48;0.20;;;0.20;;
17175;SDS011;8703;48.996;9.594;2023-03-25T11:43:18;0.10;;;0.10;;
17175;SDS011;8703;48.996;9.594;2023-03-25T11:45:46;0.20;;;0.20;;
17175;SDS011;8703;48.996;9.594;2023-03-25T11:48:15;0.20;;;0.20;;
17175;SDS011;8703;48.996;9.594;2023-03-25T11:50:46;0.20;;;0.20;;
17175;SDS011;8703;48.996;9.594;2023-03-25T11:53:17;0.20;;;0.20;;
17175;SDS011;8703;48.996;9.594;2023-03-25T11:55:45;0.20;;;0.20;;
17175;SDS011;8703;48.996;9.594;2023-03-25T11:58:16;0.20;;;0.20;;
17175;SDS011;8703;48.996;9.594;2023-03-25T12:00:45;0.20;;;0.20;;
17175;SDS011;8703;48.996;9.594;2023-03-25T12:03:18;0.20;;;0.20;;
17175;SDS011;8703;48.996;9.594;2023-03-25T12:05:57;0.20;;;0.20;;
17175;SDS011;8703;48.996;9.594;2023-03-25T12:08:27;0.30;;;0.30;;
17175;SDS011;8703;48.996;9.594;2023-03-25T12:10:56;0.20;;;0.20;;
17175;SDS011;8703;48.996;9.594;2023-03-25T12:13:31;0.10;;;0.10;;
17175;SDS011;8703;48.996;9.594;2023-03-25T12:16:08;0.30;;;0.30;;
17175;SDS011;8703;48.996;9.594;2023-03-25T12:18:47;0.20;;;0.20;;
17175;SDS011;8703;48.996;9.594;2023-03-25T12:21:28;0.30;;;0.30;;
17175;SDS011;8703;48.996;9.594;2023-03-25T12:24:14;0.30;;;0.30;;
17175;SDS011;8703;48.996;9.594;2023-03-25T12:26:50;0.30;;;0.30;;
17175;SDS011;8703;48.996;9.594;2023-03-25T12:29:29;0.20;;;0.20;;
17175;SDS011;8703;48.996;9.594;2023-03-25T12:32:04;0.20;;;0.20;;
17175;SDS011;8703;48.996;9.594;2023-03-25T12:34:39;0.30;;;0.30;;
17175;SDS011;8703;48.996;9.594;2023-03-25T12:37:18;0.20;;;0.20;;
17175;SDS011;8703;48.996;9.594;2023-03-25T12:39:55;0.20;;;0.20;;
17175;SDS011;8703;48.996;9.594;2023-03-25T12:42:34;0.13;;;0.13;;
17175;SDS011;8703;48.996;9.594;2023-03-25T12:45:19;0.10;;;0.10;;
17175;SDS011;8703;48.996;9.594;2023-03-25T12:47:54;0.20;;;0.20;;
17175;SDS011;8703;48.996;9.594;2023-03-25T12:50:25;0.20;;;0.20;;
17175;SDS011;8703;48.996;9.594;2023-03-25T12:53:00;0.20;;;0.20;;
17175;SDS011;8703;48.996;9.594;2023-03-25T12:55:40;0.20;;;0.20;;
17175;SDS011;8703;48.996;9.594;2023-03-25T12:58:26;0.20;;;0.20;;
17175;SDS011;8703;48.996;9.594;2023-03-25T13:01:05;0.20;;;0.20;;
17175;SDS011;8703;48.996;9.594;2023-03-25T13:03:46;0.27;;;0.27;;
17175;SDS011;8703;48.996;9.594;2023-03-25T13:06:25;0.20;;;0.20;;
17175;SDS011;8703;48.996;9.594;2023-03-25T13:08:57;0.20;;;0.20;;
17175;SDS011;8703;48.996;9.594;2023-03-25T13:11:27;0.10;;;0.10;;
17175;SDS011;8703;48.996;9.594;2023-03-25T13:13:57;0.10;;;0.10;;
17175;SDS011;8703;48.996;9.594;2023-03-25T13:16:28;0.20;;;0.20;;
17175;SDS011;8703;48.996;9.594;2023-03-25T13:18:59;0.20;;;0.20;;
17175;SDS011;8703;48.996;9.594;2023-03-25T13:21:29;0.20;;;0.20;;
17175;SDS011;8703;48.996;9.594;2023-03-25T13:24:00;0.40;;;0.40;;
17175;SDS011;8703;48.996;9.594;2023-03-25T13:26:31;0.20;;;0.20;;
17175;SDS011;8703;48.996;9.594;2023-03-25T13:28:59;0.20;;;0.20;;
17175;SDS011;8703;48.996;9.594;2023-03-25T13:31:29;0.20;;;0.20;;
17175;SDS011;8703;48.996;9.594;2023-03-25T13:34:00;0.20;;;0.20;;
17175;SDS011;8703;48.996;9.594;2023-03-25T13:36:34;0.20;;;0.20;;
17175;SDS011;8703;48.996;9.594;2023-03-25T13:39:08;0.15;;;0.15;;
17175;SDS011;8703;48.996;9.594;2023-03-25T13:41:39;0.20;;;0.20;;
17175;SDS011;8703;48.996;9.594;2023-03-25T13:44:10;0.20;;;0.20;;
17175;SDS011;8703;48.996;9.594;2023-03-25T13:46:40;0.10;;;0.10;;
17175;SDS011;8703;48.996;9.594;2023-03-25T13:49:12;0.30;;;0.30;;
17175;SDS011;8703;48.996;9.594;2023-03-25T13:51:42;0.20;;;0.20;;
17175;SDS011;8703;48.996;9.594;2023-03-25T13:54:12;0.20;;;0.20;;
17175;SDS011;8703;48.996;9.594;2023-03-25T13:56:54;0.20;;;0.20;;
17175;SDS011;8703;48.996;9.594;2023-03-25T14:03:04;0.30;;;0.30;;
17175;SDS011;8703;48.996;9.594;2023-03-25T14:05:59;0.20;;;0.20;;
17175;SDS011;8703;48.996;9.594;2023-03-25T14:11:44;2.95;;;0.80;;
17175;SDS011;8703;48.996;9.594;2023-03-25T14:14:14;2.63;;;1.00;;
17175;SDS011;8703;48.996;9.594;2023-03-25T14:16:44;2.20;;;0.70;;
17175;SDS011;8703;48.996;9.594;2023-03-25T14:19:13;4.07;;;0.60;;
17175;SDS011;8703;48.996;9.594;2023-03-25T14:21:43;2.70;;;0.82;;
17175;SDS011;8703;48.996;9.594;2023-03-25T14:24:15;2.97;;;0.80;;
17175;SDS011;8703;48.996;9.594;2023-03-25T14:26:47;3.53;;;0.73;;
17175;SDS011;8703;48.996;9.594;2023-03-25T14:29:18;2.70;;;0.90;;
17175;SDS011;8703;48.996;9.594;2023-03-25T14:32:04;2.45;;;1.00;;
17175;SDS011;8703;48.996;9.594;2023-03-25T14:34:50;2.73;;;0.80;;
17175;SDS011;8703;48.996;9.594;2023-03-25T14:37:27;3.60;;;0.87;;
17175;SDS011;8703;48.996;9.594;2023-03-25T14:39:57;2.17;;;0.70;;
17175;SDS011;8703;48.996;9.594;2023-03-25T14:42:38;4.83;;;1.20;;
17175;SDS011;8703;48.996;9.594;2023-03-25T14:48:23;2.23;;;0.97;;
17175;SDS011;8703;48.996;9.594;2023-03-25T14:51:07;1.73;;;0.60;;
17175;SDS011;8703;48.996;9.594;2023-03-25T14:53:39;2.93;;;0.83;;
17175;SDS011;8703;48.996;9.594;2023-03-25T14:56:07;1.33;;;0.60;;
17175;SDS011;8703;48.996;9.594;2023-03-25T14:58:43;2.03;;;0.83;;
17175;SDS011;8703;48.996;9.594;2023-03-25T15:01:13;2.50;;;0.80;;
17175;SDS011;8703;48.996;9.594;2023-03-25T15:03:42;2.50;;;0.70;;
17175;SDS011;8703;48.996;9.594;2023-03-25T15:06:13;1.70;;;0.60;;
17175;SDS011;8703;48.996;9.594;2023-03-25T15:08:43;1.90;;;0.88;;
17175;SDS011;8703;48.996;9.594;2023-03-25T15:11:17;2.13;;;0.60;;
17175;SDS011;8703;48.996;9.594;2023-03-25T15:13:53;1.92;;;0.93;;
17175;SDS011;8703;48.996;9.594;2023-03-25T15:16:26;1.08;;;0.70;;
17175;SDS011;8703;48.996;9.594;2023-03-25T15:19:01;2.63;;;0.80;;
17175;SDS011;8703;48.996;9.594;2023-03-25T15:21:34;4.60;;;1.35;;
17175;SDS011;8703;48.996;9.594;2023-03-25T15:24:38;2.40;;;0.80;;
17175;SDS011;8703;48.996;9.594;2023-03-25T15:27:07;2.67;;;0.88;;
17175;SDS011;8703;48.996;9.594;2023-03-25T15:29:42;1.42;;;0.80;;
17175;SDS011;8703;48.996;9.594;2023-03-25T15:32:21;1.88;;;1.17;;
17175;SDS011;8703;48.996;9.594;2023-03-25T15:37:57;2.75;;;1.05;;
17175;SDS011;8703;48.996;9.594;2023-03-25T15:40:35;1.70;;;0.75;;